AirNav   Everest Fuels
 
 1202 users online  

25PA The Washington Hospital Rooftop Heliport
Washington, Pennsylvania, USA

GOING TO WASHINGTON?


FAA INFORMATION EFFECTIVE 07 NOVEMBER 2019

Location

FAA Identifier: 25PA
Lat/Long: 40-10-59.4000N 080-14-46.2000W
40-10.990000N 080-14.770000W
40.1831667,-80.2461667
(estimated)
Elevation: 1250 ft. / 381 m (estimated)
Variation: 09W (2010)
From city: 1 mile N of WASHINGTON, PA
Time zone: UTC -5 (UTC -4 during Daylight Saving Time)
Zip code: 15301

Heliport Operations

Heliport use: Private use. Permission required prior to landing
Activation date: 03/2011
Control tower: no
ARTCC: CLEVELAND CENTER
FSS: ALTOONA FLIGHT SERVICE STATION
NOTAMs facility: FDC (NOTAM-D service not available)
Attendance: CONTINUOUS
Wind indicator: yes
Segmented circle: no

Heliport Communications

WX AWOS-3PT at AFJ (3 nm SW): 119.175 (724-228-3529)
WX ASOS at AGC (18 nm NE): PHONE 412-466-8968
WX ASOS at HLG (18 nm W): 127.375 (304-277-3504)
WX ASOS at PIT (19 nm N): PHONE 412-472-0145
WX AWOS-3 at FWQ (19 nm E): 118.475 (724-379-5815)
WX AWOS-A at 42PN (20 nm NE): PHONE 412-442-2213

Nearby radio navigation aids

VOR radial/distance  VOR name  Freq  Var
AGCr248/11.0ALLEGHENY VOR/DME110.0009W
HLGr114/15.5WHEELING VOR/DME112.2007W
AIRr076/28.0BELLAIRE VOR/DME117.1007W
EWCr190/38.5ELLWOOD CITY VOR/DME115.8008W

 
NDB name  Hdg/Dist  Freq  Var  ID
CADIZ102/35.323907WCFX -.-. ..-. -..-

Heliport Services

Runway Information

Helipad H1

Dimensions: 40 x 40 ft. / 12 x 12 m
Surface: ROOFTOP
Latitude: 40-10.990000N
Longitude: 080-14.770000W
Elevation: 1250.0 ft.
Traffic pattern: leftleft

Heliport Ownership and Management from official FAA records

Ownership: Privately-owned
Owner: THE WASHINGTON HOSPITAL
155 WILSON AVE
WASHINGTON, PA 15301
Phone 724-225-7000
Manager: GREG CALDWELL
155 WILSON AVE
WASHINGTON, PA 15301
Phone 724-223-3618

Heliport Operational Statistics

Aircraft based on the field: 1
Helicopters: 1
    

Additional Remarks

FOR CD CTC PITTSBURGH APCH AT 412-472-5591

Instrument Procedures

There are no published instrument procedures at 25PA.

Some nearby airports with instrument procedures:

KAFJ - Washington County Airport (3 nm SW)
G05 - Finleyville Airpark (11 nm E)
KWAY - Greene County Airport (18 nm S)
KAGC - Allegheny County Airport (18 nm NE)
KHLG - Wheeling Ohio County Airport (18 nm W)
KPIT - Pittsburgh International Airport (19 nm N)
KFWQ - Rostraver Airport (19 nm E)
 
Loc | Ops | Rwys | IFR | FBO | Links
Com | Nav | Svcs | Stats | Notes
Aerial photo
No photo
 
Sectional chart

 
Airport distance calculator
Flying to The Washington Hospital Rooftop Heliport? Find the distance to fly.

From to 25PA

Sunrise and sunset
Times for 21-Nov-2019
 Local
(UTC-5)
 Zulu
(UTC)
Morning civil twilight06:4511:45
Sunrise07:1412:14
Sunset16:5921:59
Evening civil twilight17:2922:29

Current date and time
Zulu (UTC)  21-Nov-2019 14:32:41
Local (UTC-5)  21-Nov-2019 09:32:41
 
METAR
KAFJ 
4nm S 
211356Z AUTO 19006KT 8SM CLR 01/00 A3021 RMK AO2 SLP243 T00110000 PWINO FZRANO
KAGC 
18nm NE 
211353Z 16007KT 3SM BR CLR 01/M01 A3018 RMK AO2 SLP237 VIS E 2 T00061006
KHLG 
19nm W 
211353Z 18006KT 7SM CLR 03/01 A3018 RMK AO2 SLP232 T00330006
KPIT 
19nm N 
211351Z 15004KT 5SM BR BKN140 OVC220 00/M02 A3017 RMK AO2 SLP235 T00001017
KP53 
19nm E 
211356Z AUTO 19006KT 05/04 A2964 RMK AO1 SLP043 P0003 T00500039
TAF
KAGC 
18nm NE 
211132Z 2112/2212 17002KT 5SM BR BKN250 FM211400 18006KT P6SM BKN250 FM212200 20010KT P6SM OVC080 WS020/23040KT FM220300 24013KT P6SM VCSH OVC050 WS020/24040KT FM220800 27012G18KT P6SM -SHRA OVC015
KHLG 
19nm W 
211132Z 2112/2212 18005KT P6SM BKN250 FM211800 20010G18KT P6SM OVC150 FM212200 21013KT P6SM OVC080 WS020/23040KT FM220200 23014KT P6SM VCSH OVC050 WS020/24040KT FM220700 27012G18KT P6SM -SHRA OVC015
KPIT 
19nm N 
211132Z 2112/2218 18006KT P6SM BKN250 FM212200 20010KT P6SM OVC080 WS020/23040KT FM220300 24013KT P6SM VCSH OVC050 WS020/24040KT FM220800 27012G18KT P6SM -SHRA OVC015 FM221400 30014G23KT P6SM VCSH BKN015 FM221700 30010KT P6SM BKN050
NOTAMs
Click for the latest NOTAMs
NOTAMs are issued by the DoD/FAA and will open in a separate window not controlled by AirNav.

 

 
 

Would you like to see your business listed on this page?

 If your business provides an interesting product or service to pilots, flight crews, aircraft, or users of the The Washington Hospital Rooftop Heliport, you should consider listing it here.  To start the listing process, click on the button below
 
Add a business
 

Other Pages about The Washington Hospital Rooftop Heliport

Update a link
 
Copyright © AirNav, LLC. All rights reserved. Privacy Policy  Contact